ICX247 EIKN-EGLC
Flight info
| Callsign | ICX247 |
|---|---|
| Flight time | 1h 50m |
| Altitude | 23000 |
| Route | RINUS DCT DEXEN UY124 AMPIT DCT HON HON1C |
| Aircraft | AT46/M-SDFGIRY/S |
Departure
| Time | 2026-04-26 17:21 |
|---|---|
| Airport | Ireland West Airport Knock (EIKN) |
Arrival
| Time | 2026-04-26 19:11 |
|---|---|
| Airport | London City Airport (EGLC) |
| Time | Latitude | Longitude | Altitude | Speed | Heading |
|---|---|---|---|---|---|
| 2026-04-26 16:49 | 53.91405 | -8.80940 | 639 ft | 0 kts | 289° |
| 2026-04-26 17:12 | 53.91405 | -8.80939 | 639 ft | 0 kts | 289° |
| 2026-04-26 17:15 | 53.91406 | -8.80940 | 639 ft | 1 kts | 289° |
| 2026-04-26 17:15 | 53.91405 | -8.80952 | 639 ft | 1 kts | 258° |
| 2026-04-26 17:16 | 53.91398 | -8.80962 | 639 ft | 2 kts | 193° |
| 2026-04-26 17:16 | 53.91384 | -8.80950 | 639 ft | 0 kts | 146° |
| 2026-04-26 17:16 | 53.91380 | -8.80945 | 639 ft | 2 kts | 146° |
| 2026-04-26 17:16 | 53.91360 | -8.80929 | 639 ft | 4 kts | 162° |
| 2026-04-26 17:17 | 53.91334 | -8.80919 | 639 ft | 5 kts | 167° |
| 2026-04-26 17:17 | 53.91303 | -8.80908 | 639 ft | 5 kts | 167° |
| 2026-04-26 17:17 | 53.91280 | -8.80900 | 639 ft | 0 kts | 169° |
| 2026-04-26 17:18 | 53.91266 | -8.80896 | 639 ft | 4 kts | 171° |
| 2026-04-26 17:19 | 53.91186 | -8.80868 | 641 ft | 6 kts | 168° |
| 2026-04-26 17:19 | 53.91147 | -8.80879 | 641 ft | 6 kts | 229° |
| 2026-04-26 17:19 | 53.91139 | -8.80919 | 641 ft | 0 kts | 259° |
| 2026-04-26 17:20 | 53.91072 | -8.81483 | 637 ft | 87 kts | 258° |
| 2026-04-26 17:20 | 53.90914 | -8.82811 | 790 ft | 127 kts | 257° |
| 2026-04-26 17:21 | 53.90696 | -8.84255 | 1404 ft | 129 kts | 255° |
| 2026-04-26 17:21 | 53.90410 | -8.85938 | 1618 ft | 162 kts | 254° |
| 2026-04-26 17:21 | 53.90089 | -8.87655 | 2466 ft | 148 kts | 252° |
| 2026-04-26 17:21 | 53.89729 | -8.89373 | 2994 ft | 159 kts | 251° |
| 2026-04-26 17:22 | 53.89362 | -8.91099 | 3743 ft | 153 kts | 251° |
| 2026-04-26 17:22 | 53.88984 | -8.92829 | 4228 ft | 158 kts | 250° |
| 2026-04-26 17:22 | 53.88581 | -8.94561 | 4770 ft | 156 kts | 249° |
| 2026-04-26 17:22 | 53.88161 | -8.96379 | 4947 ft | 179 kts | 250° |
| 2026-04-26 17:23 | 53.87699 | -8.98488 | 4989 ft | 200 kts | 251° |
| 2026-04-26 17:23 | 53.87243 | -9.00658 | 5581 ft | 190 kts | 251° |
| 2026-04-26 17:23 | 53.86803 | -9.02702 | 6288 ft | 180 kts | 250° |
| 2026-04-26 17:23 | 53.86053 | -9.04300 | 6927 ft | 176 kts | 207° |
| 2026-04-26 17:24 | 53.84852 | -9.04371 | 7413 ft | 181 kts | 158° |
| 2026-04-26 17:24 | 53.83975 | -9.02875 | 7856 ft | 185 kts | 114° |
| 2026-04-26 17:24 | 53.83596 | -9.00786 | 8280 ft | 188 kts | 94° |
| 2026-04-26 17:24 | 53.83648 | -8.98576 | 8694 ft | 189 kts | 86° |
| 2026-04-26 17:25 | 53.83770 | -8.96348 | 9134 ft | 191 kts | 83° |
| 2026-04-26 17:25 | 53.83952 | -8.94113 | 9573 ft | 192 kts | 81° |
| 2026-04-26 17:25 | 53.84189 | -8.91872 | 9989 ft | 194 kts | 78° |
| 2026-04-26 17:25 | 53.84484 | -8.89666 | 10391 ft | 196 kts | 75° |
| 2026-04-26 17:26 | 53.84855 | -8.87437 | 10799 ft | 198 kts | 72° |
| 2026-04-26 17:26 | 53.85316 | -8.85236 | 11216 ft | 199 kts | 67° |
| 2026-04-26 17:26 | 53.85899 | -8.83113 | 11608 ft | 200 kts | 63° |
| 2026-04-26 17:26 | 53.86488 | -8.80971 | 11990 ft | 201 kts | 66° |
| 2026-04-26 17:27 | 53.86984 | -8.78736 | 12367 ft | 204 kts | 72° |
| 2026-04-26 17:27 | 53.87343 | -8.76405 | 12761 ft | 205 kts | 77° |
| 2026-04-26 17:27 | 53.87597 | -8.74021 | 13162 ft | 206 kts | 83° |
| 2026-04-26 17:27 | 53.87677 | -8.71586 | 13546 ft | 208 kts | 89° |
| 2026-04-26 17:28 | 53.87655 | -8.69130 | 13908 ft | 210 kts | 95° |
| 2026-04-26 17:28 | 53.87472 | -8.66676 | 14277 ft | 210 kts | 102° |
| 2026-04-26 17:28 | 53.87121 | -8.64269 | 14629 ft | 211 kts | 109° |
| 2026-04-26 17:28 | 53.86636 | -8.61931 | 14984 ft | 211 kts | 112° |
| 2026-04-26 17:29 | 53.86094 | -8.59616 | 15324 ft | 212 kts | 114° |
| 2026-04-26 17:29 | 53.85914 | -8.58861 | 15431 ft | 213 kts | 114° |
| 2026-04-26 17:29 | 53.84990 | -8.54939 | 15974 ft | 215 kts | 114° |
| 2026-04-26 17:29 | 53.84433 | -8.52571 | 16276 ft | 217 kts | 113° |
| 2026-04-26 17:30 | 53.83879 | -8.50190 | 16584 ft | 218 kts | 113° |
| 2026-04-26 17:30 | 53.83330 | -8.47791 | 16891 ft | 219 kts | 112° |
| 2026-04-26 17:30 | 53.82791 | -8.45406 | 17193 ft | 220 kts | 112° |
| 2026-04-26 17:30 | 53.82242 | -8.42973 | 17478 ft | 222 kts | 112° |
| 2026-04-26 17:31 | 53.81686 | -8.40534 | 17764 ft | 223 kts | 112° |
| 2026-04-26 17:31 | 53.81123 | -8.38080 | 18043 ft | 224 kts | 113° |
| 2026-04-26 17:31 | 53.80560 | -8.35621 | 18319 ft | 225 kts | 113° |
| 2026-04-26 17:31 | 53.79993 | -8.33150 | 18586 ft | 226 kts | 113° |
| 2026-04-26 17:32 | 53.79424 | -8.30672 | 18833 ft | 227 kts | 113° |
| 2026-04-26 17:32 | 53.78853 | -8.28175 | 19063 ft | 228 kts | 113° |
| 2026-04-26 17:32 | 53.78281 | -8.25670 | 19327 ft | 229 kts | 113° |
| 2026-04-26 17:32 | 53.77704 | -8.23157 | 19585 ft | 230 kts | 113° |
| 2026-04-26 17:33 | 53.77122 | -8.20637 | 19829 ft | 231 kts | 113° |
| 2026-04-26 17:33 | 53.76536 | -8.18103 | 20063 ft | 232 kts | 114° |
| 2026-04-26 17:33 | 53.75945 | -8.15559 | 20300 ft | 233 kts | 114° |
| 2026-04-26 17:34 | 53.74958 | -8.11303 | 20663 ft | 235 kts | 114° |
| 2026-04-26 17:34 | 53.74361 | -8.08731 | 20877 ft | 236 kts | 114° |
| 2026-04-26 17:34 | 53.73765 | -8.06151 | 21099 ft | 236 kts | 114° |
| 2026-04-26 17:34 | 53.73164 | -8.03557 | 21293 ft | 238 kts | 114° |
| 2026-04-26 17:35 | 53.72560 | -8.00955 | 21471 ft | 239 kts | 114° |
| 2026-04-26 17:35 | 53.71953 | -7.98343 | 21690 ft | 239 kts | 114° |
| 2026-04-26 17:35 | 53.71147 | -7.94881 | 21977 ft | 240 kts | 114° |
| 2026-04-26 17:35 | 53.70531 | -7.92256 | 22182 ft | 241 kts | 114° |
| 2026-04-26 17:36 | 53.70115 | -7.90484 | 22315 ft | 241 kts | 114° |
| 2026-04-26 17:36 | 53.69498 | -7.87850 | 22515 ft | 242 kts | 114° |
| 2026-04-26 17:36 | 53.68879 | -7.85207 | 22693 ft | 243 kts | 114° |
| 2026-04-26 17:36 | 53.68257 | -7.82553 | 22869 ft | 244 kts | 114° |
| 2026-04-26 17:37 | 53.67642 | -7.79933 | 23054 ft | 244 kts | 114° |
| 2026-04-26 17:37 | 53.67010 | -7.77257 | 23161 ft | 247 kts | 114° |
| 2026-04-26 17:37 | 53.66367 | -7.74532 | 23221 ft | 255 kts | 114° |
| 2026-04-26 17:38 | 53.65004 | -7.68740 | 23256 ft | 276 kts | 114° |
| 2026-04-26 17:38 | 53.64278 | -7.65684 | 23261 ft | 286 kts | 113° |
| 2026-04-26 17:38 | 53.63686 | -7.62434 | 23261 ft | 294 kts | 106° |
| 2026-04-26 17:38 | 53.63210 | -7.59044 | 23264 ft | 300 kts | 105° |
| 2026-04-26 17:39 | 53.62735 | -7.55594 | 23262 ft | 305 kts | 105° |
| 2026-04-26 17:39 | 53.62210 | -7.52108 | 23268 ft | 309 kts | 107° |
| 2026-04-26 17:39 | 53.61648 | -7.48602 | 23268 ft | 312 kts | 107° |
| 2026-04-26 17:39 | 53.61080 | -7.45058 | 23268 ft | 315 kts | 107° |
| 2026-04-26 17:40 | 53.60507 | -7.41490 | 23268 ft | 317 kts | 106° |
| 2026-04-26 17:40 | 53.60125 | -7.39107 | 23264 ft | 318 kts | 106° |
| 2026-04-26 17:40 | 53.59356 | -7.34277 | 23270 ft | 321 kts | 106° |
| 2026-04-26 17:40 | 53.58775 | -7.30647 | 23259 ft | 322 kts | 106° |
| 2026-04-26 17:41 | 53.58189 | -7.27010 | 23261 ft | 323 kts | 106° |
| 2026-04-26 17:41 | 53.57598 | -7.23365 | 23263 ft | 323 kts | 106° |
| 2026-04-26 17:41 | 53.57005 | -7.19713 | 23254 ft | 323 kts | 106° |
| 2026-04-26 17:41 | 53.56414 | -7.16065 | 23252 ft | 324 kts | 106° |
| 2026-04-26 17:42 | 53.55821 | -7.12412 | 23253 ft | 324 kts | 107° |
| 2026-04-26 17:42 | 53.55222 | -7.08761 | 23254 ft | 324 kts | 107° |
| 2026-04-26 17:42 | 53.54626 | -7.05109 | 23246 ft | 324 kts | 106° |
| 2026-04-26 17:42 | 53.54027 | -7.01456 | 23252 ft | 324 kts | 107° |
| 2026-04-26 17:43 | 53.53429 | -6.97809 | 23247 ft | 324 kts | 107° |
| 2026-04-26 17:43 | 53.52827 | -6.94159 | 23244 ft | 324 kts | 107° |
| 2026-04-26 17:43 | 53.52233 | -6.90561 | 23245 ft | 324 kts | 107° |
| 2026-04-26 17:43 | 53.51626 | -6.86875 | 23250 ft | 323 kts | 107° |
| 2026-04-26 17:44 | 53.51022 | -6.83239 | 23251 ft | 323 kts | 107° |
| 2026-04-26 17:44 | 53.50421 | -6.79605 | 23244 ft | 323 kts | 107° |
| 2026-04-26 17:44 | 53.49825 | -6.76027 | 23244 ft | 323 kts | 107° |
| 2026-04-26 17:44 | 53.49213 | -6.72348 | 23239 ft | 323 kts | 107° |
| 2026-04-26 17:45 | 53.48613 | -6.68768 | 23238 ft | 323 kts | 107° |
| 2026-04-26 17:45 | 53.48005 | -6.65136 | 23235 ft | 323 kts | 107° |
| 2026-04-26 17:45 | 53.47396 | -6.61509 | 23243 ft | 323 kts | 107° |
| 2026-04-26 17:45 | 53.46787 | -6.57881 | 23237 ft | 323 kts | 107° |
| 2026-04-26 17:46 | 53.46177 | -6.54260 | 23237 ft | 322 kts | 107° |
| 2026-04-26 17:46 | 53.45568 | -6.50642 | 23240 ft | 322 kts | 107° |
| 2026-04-26 17:46 | 53.44956 | -6.47031 | 23237 ft | 322 kts | 107° |
| 2026-04-26 17:46 | 53.44343 | -6.43415 | 23239 ft | 322 kts | 107° |
| 2026-04-26 17:47 | 53.43732 | -6.39809 | 23247 ft | 321 kts | 107° |
| 2026-04-26 17:47 | 53.43324 | -6.37419 | 23250 ft | 321 kts | 107° |
| 2026-04-26 17:47 | 53.42505 | -6.32606 | 23263 ft | 321 kts | 107° |
| 2026-04-26 17:47 | 53.41889 | -6.29009 | 23258 ft | 321 kts | 107° |
| 2026-04-26 17:48 | 53.41275 | -6.25415 | 23266 ft | 321 kts | 107° |
| 2026-04-26 17:48 | 53.40658 | -6.21829 | 23264 ft | 321 kts | 107° |
| 2026-04-26 17:48 | 53.40041 | -6.18231 | 23267 ft | 321 kts | 107° |
| 2026-04-26 17:48 | 53.39421 | -6.14639 | 23266 ft | 321 kts | 107° |
| 2026-04-26 17:49 | 53.38803 | -6.11053 | 23259 ft | 321 kts | 107° |
| 2026-04-26 17:49 | 53.38190 | -6.07507 | 23262 ft | 321 kts | 108° |
| 2026-04-26 17:49 | 53.37568 | -6.03918 | 23260 ft | 321 kts | 108° |
| 2026-04-26 17:49 | 53.36945 | -6.00328 | 23258 ft | 321 kts | 108° |
| 2026-04-26 17:50 | 53.36319 | -5.96740 | 23258 ft | 321 kts | 108° |
| 2026-04-26 17:50 | 53.35695 | -5.93157 | 23258 ft | 321 kts | 108° |
| 2026-04-26 17:50 | 53.35068 | -5.89571 | 23258 ft | 321 kts | 108° |
| 2026-04-26 17:50 | 53.34442 | -5.85993 | 23259 ft | 320 kts | 108° |
| 2026-04-26 17:51 | 53.33815 | -5.82415 | 23252 ft | 320 kts | 108° |
| 2026-04-26 17:51 | 53.33187 | -5.78842 | 23259 ft | 320 kts | 108° |
| 2026-04-26 17:51 | 53.32558 | -5.75276 | 23252 ft | 320 kts | 108° |
| 2026-04-26 17:51 | 53.31927 | -5.71707 | 23251 ft | 320 kts | 108° |
| 2026-04-26 17:52 | 53.31297 | -5.68138 | 23259 ft | 320 kts | 108° |
| 2026-04-26 17:52 | 53.30663 | -5.64568 | 23259 ft | 320 kts | 108° |
| 2026-04-26 17:52 | 53.30031 | -5.61002 | 23255 ft | 320 kts | 108° |
| 2026-04-26 17:52 | 53.29396 | -5.57438 | 23262 ft | 320 kts | 108° |
| 2026-04-26 17:53 | 53.28763 | -5.53878 | 23266 ft | 320 kts | 109° |
| 2026-04-26 17:53 | 53.28129 | -5.50320 | 23266 ft | 320 kts | 108° |
| 2026-04-26 17:53 | 53.27778 | -5.46700 | 23259 ft | 321 kts | 95° |
| 2026-04-26 17:54 | 53.27732 | -5.39256 | 23267 ft | 320 kts | 92° |
| 2026-04-26 17:54 | 53.27675 | -5.35529 | 23268 ft | 320 kts | 94° |
| 2026-04-26 17:54 | 53.27557 | -5.31813 | 23268 ft | 321 kts | 95° |
| 2026-04-26 17:54 | 53.27438 | -5.28091 | 23267 ft | 321 kts | 95° |
| 2026-04-26 17:55 | 53.27328 | -5.24364 | 23267 ft | 321 kts | 94° |
| 2026-04-26 17:55 | 53.27218 | -5.20635 | 23267 ft | 321 kts | 95° |
| 2026-04-26 17:55 | 53.27110 | -5.16909 | 23261 ft | 321 kts | 95° |
| 2026-04-26 17:55 | 53.26982 | -5.13186 | 23267 ft | 321 kts | 95° |
| 2026-04-26 17:56 | 53.26857 | -5.09458 | 23267 ft | 321 kts | 95° |
| 2026-04-26 17:56 | 53.26612 | -5.02000 | 23268 ft | 321 kts | 95° |
| 2026-04-26 17:57 | 53.26360 | -4.94547 | 23267 ft | 321 kts | 95° |
| 2026-04-26 17:57 | 53.26233 | -4.90818 | 23267 ft | 321 kts | 95° |
| 2026-04-26 17:57 | 53.26107 | -4.87092 | 23259 ft | 321 kts | 95° |
| 2026-04-26 17:57 | 53.25977 | -4.83362 | 23268 ft | 321 kts | 95° |
| 2026-04-26 17:58 | 53.25579 | -4.72235 | 23267 ft | 321 kts | 95° |
| 2026-04-26 17:59 | 53.25301 | -4.64791 | 23267 ft | 321 kts | 95° |
| 2026-04-26 17:59 | 53.25175 | -4.61063 | 23267 ft | 321 kts | 95° |
| 2026-04-26 17:59 | 53.25054 | -4.57333 | 23268 ft | 322 kts | 95° |
| 2026-04-26 17:59 | 53.24929 | -4.53605 | 23259 ft | 322 kts | 95° |
| 2026-04-26 18:00 | 53.24799 | -4.49873 | 23260 ft | 322 kts | 95° |
| 2026-04-26 18:00 | 53.24667 | -4.46141 | 23268 ft | 322 kts | 95° |
| 2026-04-26 18:00 | 53.24532 | -4.42412 | 23268 ft | 322 kts | 95° |
| 2026-04-26 18:00 | 53.24399 | -4.38678 | 23268 ft | 322 kts | 95° |
| 2026-04-26 18:01 | 53.24265 | -4.34949 | 23273 ft | 322 kts | 95° |
| 2026-04-26 18:01 | 53.24130 | -4.31210 | 23274 ft | 322 kts | 95° |
| 2026-04-26 18:01 | 53.23994 | -4.27481 | 23262 ft | 322 kts | 95° |
| 2026-04-26 18:01 | 53.23855 | -4.23747 | 23275 ft | 322 kts | 95° |
| 2026-04-26 18:02 | 53.23716 | -4.20015 | 23282 ft | 322 kts | 95° |
| 2026-04-26 18:02 | 53.23624 | -4.17545 | 23284 ft | 322 kts | 95° |
| 2026-04-26 18:02 | 53.23434 | -4.12553 | 23284 ft | 322 kts | 95° |
| 2026-04-26 18:02 | 53.23292 | -4.08819 | 23284 ft | 322 kts | 96° |
| 2026-04-26 18:03 | 53.23148 | -4.05088 | 23284 ft | 322 kts | 96° |
| 2026-04-26 18:03 | 53.23003 | -4.01359 | 23284 ft | 322 kts | 96° |
| 2026-04-26 18:03 | 53.22857 | -3.97629 | 23287 ft | 322 kts | 96° |
| 2026-04-26 18:03 | 53.22704 | -3.93894 | 23281 ft | 323 kts | 96° |
| 2026-04-26 18:04 | 53.22554 | -3.90207 | 23279 ft | 323 kts | 96° |
| 2026-04-26 18:04 | 53.22400 | -3.86472 | 23277 ft | 323 kts | 96° |
| 2026-04-26 18:04 | 53.22245 | -3.82739 | 23278 ft | 323 kts | 96° |
| 2026-04-26 18:05 | 53.21933 | -3.75275 | 23281 ft | 323 kts | 96° |
| 2026-04-26 18:05 | 53.21774 | -3.71540 | 23278 ft | 323 kts | 96° |
| 2026-04-26 18:05 | 53.21615 | -3.67800 | 23276 ft | 323 kts | 96° |
| 2026-04-26 18:05 | 53.21453 | -3.64054 | 23277 ft | 323 kts | 96° |
| 2026-04-26 18:06 | 53.21292 | -3.60314 | 23275 ft | 323 kts | 96° |
| 2026-04-26 18:06 | 53.21128 | -3.56574 | 23259 ft | 323 kts | 96° |
| 2026-04-26 18:06 | 53.20963 | -3.52837 | 23278 ft | 323 kts | 96° |
| 2026-04-26 18:06 | 53.20796 | -3.49101 | 23266 ft | 323 kts | 96° |
| 2026-04-26 18:07 | 53.20629 | -3.45366 | 23270 ft | 323 kts | 96° |
| 2026-04-26 18:07 | 53.20460 | -3.41628 | 23268 ft | 323 kts | 96° |
| 2026-04-26 18:07 | 53.20291 | -3.37894 | 23268 ft | 323 kts | 96° |
| 2026-04-26 18:07 | 53.20177 | -3.35419 | 23269 ft | 323 kts | 96° |
| 2026-04-26 18:08 | 53.19947 | -3.30418 | 23266 ft | 323 kts | 96° |
| 2026-04-26 18:08 | 53.19774 | -3.26676 | 23265 ft | 324 kts | 96° |
| 2026-04-26 18:08 | 53.19597 | -3.22935 | 23262 ft | 322 kts | 97° |
| 2026-04-26 18:08 | 53.19012 | -3.19401 | 23269 ft | 316 kts | 118° |
| 2026-04-26 18:09 | 53.17916 | -3.16238 | 23262 ft | 314 kts | 128° |
| 2026-04-26 18:09 | 53.16527 | -3.13442 | 23266 ft | 313 kts | 136° |
| 2026-04-26 18:09 | 53.15025 | -3.10807 | 23262 ft | 314 kts | 137° |
| 2026-04-26 18:09 | 53.13516 | -3.08181 | 23260 ft | 314 kts | 136° |
| 2026-04-26 18:10 | 53.12041 | -3.05494 | 23267 ft | 315 kts | 135° |
| 2026-04-26 18:10 | 53.10593 | -3.02756 | 23270 ft | 315 kts | 135° |
| 2026-04-26 18:10 | 53.09137 | -3.00028 | 23271 ft | 315 kts | 135° |
| 2026-04-26 18:10 | 53.07697 | -2.97341 | 23271 ft | 316 kts | 135° |
| 2026-04-26 18:11 | 53.06235 | -2.94616 | 23270 ft | 316 kts | 135° |
| 2026-04-26 18:11 | 53.04771 | -2.91890 | 23270 ft | 316 kts | 135° |
| 2026-04-26 18:11 | 53.03305 | -2.89163 | 23261 ft | 316 kts | 135° |
| 2026-04-26 18:11 | 53.01841 | -2.86438 | 23269 ft | 316 kts | 135° |
| 2026-04-26 18:12 | 53.00373 | -2.83714 | 23270 ft | 316 kts | 135° |
| 2026-04-26 18:12 | 52.98906 | -2.80993 | 23258 ft | 317 kts | 135° |
| 2026-04-26 18:12 | 52.97437 | -2.78272 | 23263 ft | 317 kts | 135° |
| 2026-04-26 18:12 | 52.95966 | -2.75549 | 23270 ft | 317 kts | 135° |
| 2026-04-26 18:13 | 52.94496 | -2.72831 | 23269 ft | 317 kts | 135° |
| 2026-04-26 18:13 | 52.93026 | -2.70117 | 23267 ft | 317 kts | 135° |
| 2026-04-26 18:13 | 52.91553 | -2.67401 | 23262 ft | 317 kts | 135° |
| 2026-04-26 18:13 | 52.90579 | -2.65605 | 23262 ft | 317 kts | 135° |
| 2026-04-26 18:14 | 52.88610 | -2.61979 | 23269 ft | 317 kts | 135° |
| 2026-04-26 18:14 | 52.87134 | -2.59266 | 23263 ft | 317 kts | 135° |
| 2026-04-26 18:14 | 52.85658 | -2.56558 | 23269 ft | 317 kts | 135° |
| 2026-04-26 18:14 | 52.84181 | -2.53846 | 23258 ft | 317 kts | 135° |
| 2026-04-26 18:15 | 52.82705 | -2.51145 | 23263 ft | 317 kts | 136° |
| 2026-04-26 18:15 | 52.81227 | -2.48435 | 23269 ft | 317 kts | 136° |
| 2026-04-26 18:15 | 52.79766 | -2.45766 | 23270 ft | 317 kts | 135° |
| 2026-04-26 18:15 | 52.78287 | -2.43061 | 23258 ft | 317 kts | 135° |
| 2026-04-26 18:16 | 52.76806 | -2.40361 | 23269 ft | 317 kts | 135° |
| 2026-04-26 18:16 | 52.73844 | -2.34964 | 23259 ft | 317 kts | 135° |
| 2026-04-26 18:16 | 52.72362 | -2.32271 | 23261 ft | 317 kts | 135° |
| 2026-04-26 18:17 | 52.70881 | -2.29578 | 23261 ft | 317 kts | 135° |
| 2026-04-26 18:17 | 52.69397 | -2.26889 | 23262 ft | 317 kts | 136° |
| 2026-04-26 18:17 | 52.67917 | -2.24201 | 23260 ft | 317 kts | 136° |
| 2026-04-26 18:17 | 52.66433 | -2.21517 | 23252 ft | 317 kts | 136° |
| 2026-04-26 18:18 | 52.64950 | -2.18833 | 23270 ft | 317 kts | 135° |
| 2026-04-26 18:18 | 52.63466 | -2.16151 | 23258 ft | 317 kts | 136° |
| 2026-04-26 18:18 | 52.61979 | -2.13472 | 23269 ft | 317 kts | 136° |
| 2026-04-26 18:18 | 52.60497 | -2.10795 | 23271 ft | 317 kts | 136° |
| 2026-04-26 18:19 | 52.59007 | -2.08115 | 23262 ft | 317 kts | 136° |
| 2026-04-26 18:19 | 52.57519 | -2.05437 | 23268 ft | 317 kts | 136° |
| 2026-04-26 18:19 | 52.56030 | -2.02761 | 23270 ft | 317 kts | 136° |
| 2026-04-26 18:19 | 52.54540 | -2.00091 | 23266 ft | 317 kts | 136° |
| 2026-04-26 18:20 | 52.53051 | -1.97417 | 23270 ft | 317 kts | 136° |
| 2026-04-26 18:20 | 52.51560 | -1.94748 | 23272 ft | 317 kts | 135° |
| 2026-04-26 18:20 | 52.50073 | -1.92084 | 23258 ft | 317 kts | 136° |
| 2026-04-26 18:20 | 52.49570 | -1.91184 | 23271 ft | 317 kts | 136° |
| 2026-04-26 18:21 | 52.47259 | -1.87057 | 23270 ft | 317 kts | 136° |
| 2026-04-26 18:21 | 52.45805 | -1.84464 | 23264 ft | 317 kts | 136° |
| 2026-04-26 18:21 | 52.44309 | -1.81803 | 23153 ft | 320 kts | 136° |
| 2026-04-26 18:21 | 52.42808 | -1.79132 | 22893 ft | 317 kts | 136° |
| 2026-04-26 18:22 | 52.41318 | -1.76482 | 22652 ft | 316 kts | 136° |
| 2026-04-26 18:22 | 52.39832 | -1.73840 | 22402 ft | 314 kts | 136° |
| 2026-04-26 18:22 | 52.38354 | -1.71219 | 22150 ft | 313 kts | 136° |
| 2026-04-26 18:22 | 52.36876 | -1.68607 | 21900 ft | 312 kts | 136° |
| 2026-04-26 18:23 | 52.35528 | -1.65838 | 21651 ft | 314 kts | 121° |
| 2026-04-26 18:23 | 52.34765 | -1.62491 | 21397 ft | 315 kts | 108° |
| 2026-04-26 18:23 | 52.34225 | -1.59020 | 21142 ft | 315 kts | 105° |
| 2026-04-26 18:23 | 52.33699 | -1.55539 | 20898 ft | 315 kts | 106° |
| 2026-04-26 18:24 | 52.33107 | -1.52090 | 20648 ft | 315 kts | 108° |
| 2026-04-26 18:24 | 52.32461 | -1.48662 | 20398 ft | 316 kts | 109° |
| 2026-04-26 18:24 | 52.31819 | -1.45231 | 20147 ft | 316 kts | 109° |
| 2026-04-26 18:24 | 52.31188 | -1.41800 | 19897 ft | 316 kts | 109° |
| 2026-04-26 18:25 | 52.30556 | -1.38363 | 19647 ft | 316 kts | 108° |
| 2026-04-26 18:25 | 52.29918 | -1.34932 | 19396 ft | 314 kts | 110° |
| 2026-04-26 18:25 | 52.28922 | -1.31816 | 19145 ft | 309 kts | 129° |
| 2026-04-26 18:25 | 52.27547 | -1.29117 | 18895 ft | 309 kts | 135° |
| 2026-04-26 18:26 | 52.26098 | -1.26524 | 18645 ft | 309 kts | 135° |
| 2026-04-26 18:26 | 52.24660 | -1.23906 | 18440 ft | 309 kts | 134° |
| 2026-04-26 18:26 | 52.23738 | -1.22138 | 18373 ft | 310 kts | 133° |
| 2026-04-26 18:26 | 52.22363 | -1.19400 | 18317 ft | 314 kts | 130° |
| 2026-04-26 18:27 | 52.21463 | -1.16133 | 18288 ft | 322 kts | 102° |
| 2026-04-26 18:27 | 52.21526 | -1.12506 | 18281 ft | 322 kts | 79° |
| 2026-04-26 18:27 | 52.21946 | -1.08924 | 18278 ft | 321 kts | 81° |
| 2026-04-26 18:27 | 52.22122 | -1.05294 | 18266 ft | 322 kts | 91° |
| 2026-04-26 18:28 | 52.21968 | -1.01981 | 18269 ft | 323 kts | 98° |
| 2026-04-26 18:28 | 52.21652 | -0.98349 | 18265 ft | 324 kts | 99° |
| 2026-04-26 18:28 | 52.21325 | -0.94710 | 18267 ft | 324 kts | 99° |
| 2026-04-26 18:28 | 52.21036 | -0.91063 | 18268 ft | 325 kts | 98° |
| 2026-04-26 18:29 | 52.20785 | -0.87408 | 18267 ft | 325 kts | 97° |
| 2026-04-26 18:29 | 52.20533 | -0.83747 | 18264 ft | 325 kts | 97° |
| 2026-04-26 18:29 | 52.20276 | -0.80097 | 18267 ft | 325 kts | 98° |
| 2026-04-26 18:29 | 52.20019 | -0.76441 | 18267 ft | 324 kts | 97° |
| 2026-04-26 18:30 | 52.19767 | -0.72787 | 18267 ft | 324 kts | 97° |
| 2026-04-26 18:30 | 52.19516 | -0.69133 | 18267 ft | 324 kts | 97° |
| 2026-04-26 18:30 | 52.19297 | -0.65962 | 18266 ft | 324 kts | 97° |
| 2026-04-26 18:30 | 52.19046 | -0.62311 | 18266 ft | 324 kts | 97° |
| 2026-04-26 18:31 | 52.18793 | -0.58659 | 18269 ft | 324 kts | 97° |
| 2026-04-26 18:31 | 52.18535 | -0.55009 | 18267 ft | 324 kts | 98° |
| 2026-04-26 18:31 | 52.18271 | -0.51361 | 18264 ft | 324 kts | 98° |
| 2026-04-26 18:31 | 52.18006 | -0.47710 | 18267 ft | 324 kts | 98° |
| 2026-04-26 18:32 | 52.17883 | -0.46052 | 18264 ft | 325 kts | 98° |
| 2026-04-26 18:32 | 52.17737 | -0.44040 | 18265 ft | 324 kts | 98° |
| 2026-04-26 18:32 | 52.17466 | -0.40391 | 18272 ft | 324 kts | 98° |
| 2026-04-26 18:32 | 52.17196 | -0.36744 | 18273 ft | 324 kts | 98° |
| 2026-04-26 18:33 | 52.16924 | -0.33097 | 18274 ft | 324 kts | 98° |
| 2026-04-26 18:33 | 52.16652 | -0.29452 | 18274 ft | 324 kts | 98° |
| 2026-04-26 18:33 | 52.16379 | -0.25810 | 18281 ft | 324 kts | 98° |
| 2026-04-26 18:33 | 52.16105 | -0.22166 | 18284 ft | 324 kts | 98° |
| 2026-04-26 18:34 | 52.15830 | -0.18527 | 18284 ft | 324 kts | 98° |
| 2026-04-26 18:34 | 52.15552 | -0.14882 | 18286 ft | 324 kts | 98° |
| 2026-04-26 18:34 | 52.15273 | -0.11239 | 18286 ft | 324 kts | 98° |
| 2026-04-26 18:34 | 52.14995 | -0.07593 | 18285 ft | 324 kts | 98° |
| 2026-04-26 18:35 | 52.14713 | -0.03954 | 18285 ft | 324 kts | 98° |
| 2026-04-26 18:35 | 52.14433 | -0.00310 | 18287 ft | 324 kts | 98° |
| 2026-04-26 18:35 | 52.14150 | 0.03335 | 18286 ft | 324 kts | 98° |
| 2026-04-26 18:35 | 52.13867 | 0.06966 | 18276 ft | 323 kts | 98° |
| 2026-04-26 18:36 | 52.13585 | 0.10586 | 18285 ft | 321 kts | 98° |
| 2026-04-26 18:36 | 52.13304 | 0.14185 | 18285 ft | 320 kts | 98° |
| 2026-04-26 18:36 | 52.13015 | 0.17770 | 18287 ft | 319 kts | 99° |
| 2026-04-26 18:36 | 52.12712 | 0.21347 | 18292 ft | 319 kts | 99° |
| 2026-04-26 18:37 | 52.12419 | 0.24916 | 18295 ft | 318 kts | 99° |
| 2026-04-26 18:37 | 52.12126 | 0.28483 | 18295 ft | 318 kts | 99° |
| 2026-04-26 18:37 | 52.11832 | 0.32056 | 18293 ft | 318 kts | 99° |
| 2026-04-26 18:37 | 52.11536 | 0.35619 | 18294 ft | 318 kts | 99° |
| 2026-04-26 18:38 | 52.11238 | 0.39183 | 18288 ft | 318 kts | 99° |
| 2026-04-26 18:38 | 52.10942 | 0.42748 | 18295 ft | 318 kts | 99° |
| 2026-04-26 18:38 | 52.10643 | 0.46311 | 18294 ft | 318 kts | 99° |
| 2026-04-26 18:38 | 52.10319 | 0.49865 | 18296 ft | 318 kts | 100° |
| 2026-04-26 18:39 | 52.09935 | 0.53403 | 18294 ft | 318 kts | 102° |
| 2026-04-26 18:39 | 52.09537 | 0.56937 | 18294 ft | 318 kts | 101° |
| 2026-04-26 18:39 | 52.09147 | 0.60473 | 18295 ft | 318 kts | 101° |
| 2026-04-26 18:39 | 52.08758 | 0.64013 | 18295 ft | 318 kts | 101° |
| 2026-04-26 18:40 | 52.08366 | 0.67557 | 18294 ft | 318 kts | 101° |
| 2026-04-26 18:40 | 52.07974 | 0.71095 | 18295 ft | 318 kts | 101° |
| 2026-04-26 18:40 | 52.07578 | 0.74637 | 18284 ft | 318 kts | 101° |
| 2026-04-26 18:40 | 52.07185 | 0.78177 | 18294 ft | 318 kts | 101° |
| 2026-04-26 18:41 | 52.06774 | 0.81702 | 18294 ft | 315 kts | 105° |
| 2026-04-26 18:41 | 52.05803 | 0.84851 | 18159 ft | 314 kts | 132° |
| 2026-04-26 18:41 | 52.04124 | 0.87028 | 17910 ft | 308 kts | 149° |
| 2026-04-26 18:41 | 52.02362 | 0.89001 | 17650 ft | 308 kts | 145° |
| 2026-04-26 18:42 | 52.00751 | 0.91299 | 17414 ft | 309 kts | 136° |
| 2026-04-26 18:42 | 51.99340 | 0.93925 | 17165 ft | 308 kts | 131° |
| 2026-04-26 18:42 | 51.98001 | 0.96640 | 16908 ft | 308 kts | 130° |
| 2026-04-26 18:42 | 51.96650 | 0.99348 | 16529 ft | 311 kts | 131° |
| 2026-04-26 18:43 | 51.95253 | 1.02014 | 15546 ft | 312 kts | 132° |
| 2026-04-26 18:43 | 51.93818 | 1.04685 | 14577 ft | 316 kts | 133° |
| 2026-04-26 18:43 | 51.92384 | 1.07333 | 13678 ft | 309 kts | 133° |
| 2026-04-26 18:43 | 51.90991 | 1.09941 | 12759 ft | 304 kts | 132° |
| 2026-04-26 18:44 | 51.89626 | 1.12514 | 11871 ft | 298 kts | 132° |
| 2026-04-26 18:44 | 51.88284 | 1.15040 | 10983 ft | 293 kts | 132° |
| 2026-04-26 18:44 | 51.86983 | 1.17489 | 10124 ft | 289 kts | 131° |
| 2026-04-26 18:44 | 51.85682 | 1.19935 | 9294 ft | 284 kts | 131° |
| 2026-04-26 18:45 | 51.84442 | 1.22283 | 9278 ft | 272 kts | 130° |
| 2026-04-26 18:45 | 51.83230 | 1.24615 | 9292 ft | 270 kts | 130° |
| 2026-04-26 18:45 | 51.82021 | 1.26939 | 9297 ft | 270 kts | 131° |
| 2026-04-26 18:45 | 51.80800 | 1.29239 | 9301 ft | 269 kts | 131° |
| 2026-04-26 18:46 | 51.79576 | 1.31526 | 9302 ft | 269 kts | 131° |
| 2026-04-26 18:46 | 51.78351 | 1.33815 | 9303 ft | 267 kts | 131° |
| 2026-04-26 18:46 | 51.77171 | 1.36013 | 9302 ft | 252 kts | 131° |
| 2026-04-26 18:46 | 51.76046 | 1.38129 | 9302 ft | 246 kts | 131° |
| 2026-04-26 18:47 | 51.74898 | 1.40125 | 9299 ft | 239 kts | 142° |
| 2026-04-26 18:47 | 51.73373 | 1.41052 | 9304 ft | 236 kts | 176° |
| 2026-04-26 18:47 | 51.71736 | 1.40923 | 9304 ft | 236 kts | 190° |
| 2026-04-26 18:47 | 51.70149 | 1.40296 | 9304 ft | 235 kts | 200° |
| 2026-04-26 18:48 | 51.68635 | 1.39315 | 9304 ft | 235 kts | 205° |
| 2026-04-26 18:48 | 51.67156 | 1.38205 | 9304 ft | 235 kts | 206° |
| 2026-04-26 18:48 | 51.65681 | 1.37075 | 9303 ft | 234 kts | 206° |
| 2026-04-26 18:48 | 51.64206 | 1.35952 | 9303 ft | 234 kts | 206° |
| 2026-04-26 18:49 | 51.62729 | 1.34851 | 9307 ft | 234 kts | 205° |
| 2026-04-26 18:49 | 51.61243 | 1.33772 | 9310 ft | 234 kts | 205° |
| 2026-04-26 18:49 | 51.59757 | 1.32709 | 9311 ft | 234 kts | 204° |
| 2026-04-26 18:49 | 51.58185 | 1.32205 | 9311 ft | 230 kts | 182° |
| 2026-04-26 18:50 | 51.56670 | 1.31626 | 9260 ft | 228 kts | 213° |
| 2026-04-26 18:50 | 51.55695 | 1.29732 | 9018 ft | 221 kts | 251° |
| 2026-04-26 18:50 | 51.55653 | 1.27328 | 8770 ft | 217 kts | 287° |
| 2026-04-26 18:50 | 51.55965 | 1.25006 | 8509 ft | 212 kts | 268° |
| 2026-04-26 18:51 | 51.55825 | 1.22657 | 8258 ft | 212 kts | 263° |
| 2026-04-26 18:51 | 51.55567 | 1.20306 | 8007 ft | 215 kts | 257° |
| 2026-04-26 18:51 | 51.55142 | 1.17972 | 7757 ft | 220 kts | 251° |
| 2026-04-26 18:51 | 51.54554 | 1.15678 | 7505 ft | 224 kts | 246° |
| 2026-04-26 18:52 | 51.53879 | 1.13412 | 7258 ft | 226 kts | 245° |
| 2026-04-26 18:52 | 51.53179 | 1.11142 | 7014 ft | 228 kts | 245° |
| 2026-04-26 18:52 | 51.52487 | 1.08847 | 6759 ft | 229 kts | 245° |
| 2026-04-26 18:52 | 51.51800 | 1.06539 | 6509 ft | 230 kts | 245° |
| 2026-04-26 18:53 | 51.51111 | 1.04218 | 6266 ft | 230 kts | 245° |
| 2026-04-26 18:53 | 51.50429 | 1.01920 | 6135 ft | 225 kts | 245° |
| 2026-04-26 18:53 | 51.49756 | 0.99659 | 6078 ft | 224 kts | 245° |
| 2026-04-26 18:53 | 51.49090 | 0.97407 | 6050 ft | 223 kts | 245° |
| 2026-04-26 18:54 | 51.48421 | 0.95149 | 6037 ft | 225 kts | 245° |
| 2026-04-26 18:54 | 51.47747 | 0.92875 | 6030 ft | 226 kts | 245° |
| 2026-04-26 18:54 | 51.47407 | 0.90475 | 6030 ft | 222 kts | 270° |
| 2026-04-26 18:54 | 51.47491 | 0.87988 | 6025 ft | 225 kts | 276° |
| 2026-04-26 18:55 | 51.47641 | 0.85489 | 6024 ft | 226 kts | 276° |
| 2026-04-26 18:55 | 51.47793 | 0.82976 | 6023 ft | 227 kts | 276° |
| 2026-04-26 18:55 | 51.47929 | 0.80454 | 6023 ft | 227 kts | 275° |
| 2026-04-26 18:55 | 51.48034 | 0.77924 | 6028 ft | 227 kts | 274° |
| 2026-04-26 18:56 | 51.48131 | 0.75391 | 6030 ft | 228 kts | 274° |
| 2026-04-26 18:56 | 51.48227 | 0.72857 | 6032 ft | 228 kts | 274° |
| 2026-04-26 18:56 | 51.48323 | 0.70320 | 6032 ft | 228 kts | 274° |
| 2026-04-26 18:56 | 51.48415 | 0.67780 | 6032 ft | 228 kts | 274° |
| 2026-04-26 18:57 | 51.48509 | 0.65240 | 6017 ft | 229 kts | 274° |
| 2026-04-26 18:57 | 51.48575 | 0.63559 | 5849 ft | 223 kts | 275° |
| 2026-04-26 18:57 | 51.48690 | 0.60300 | 5510 ft | 218 kts | 274° |
| 2026-04-26 18:57 | 51.48772 | 0.57870 | 5259 ft | 219 kts | 274° |
| 2026-04-26 18:58 | 51.48863 | 0.55433 | 5009 ft | 219 kts | 274° |
| 2026-04-26 18:58 | 51.48950 | 0.52995 | 4761 ft | 219 kts | 274° |
| 2026-04-26 18:58 | 51.49038 | 0.50559 | 4509 ft | 219 kts | 274° |
| 2026-04-26 18:58 | 51.49125 | 0.48122 | 4267 ft | 218 kts | 274° |
| 2026-04-26 18:59 | 51.48877 | 0.45768 | 4138 ft | 215 kts | 245° |
| 2026-04-26 18:59 | 51.48134 | 0.43699 | 3988 ft | 215 kts | 238° |
| 2026-04-26 18:59 | 51.47335 | 0.41678 | 3748 ft | 214 kts | 238° |
| 2026-04-26 18:59 | 51.46538 | 0.39665 | 3505 ft | 214 kts | 238° |
| 2026-04-26 19:00 | 51.45750 | 0.37649 | 3256 ft | 213 kts | 239° |
| 2026-04-26 19:00 | 51.44989 | 0.35632 | 3126 ft | 210 kts | 239° |
| 2026-04-26 19:00 | 51.44245 | 0.33628 | 3065 ft | 210 kts | 240° |
| 2026-04-26 19:00 | 51.43508 | 0.31610 | 3040 ft | 210 kts | 240° |
| 2026-04-26 19:01 | 51.42964 | 0.29502 | 3025 ft | 203 kts | 265° |
| 2026-04-26 19:01 | 51.42989 | 0.27254 | 3022 ft | 203 kts | 275° |
| 2026-04-26 19:01 | 51.43108 | 0.24999 | 3014 ft | 203 kts | 276° |
| 2026-04-26 19:01 | 51.43236 | 0.22740 | 3007 ft | 204 kts | 276° |
| 2026-04-26 19:02 | 51.43357 | 0.20496 | 3005 ft | 201 kts | 275° |
| 2026-04-26 19:02 | 51.43449 | 0.18284 | 3000 ft | 197 kts | 275° |
| 2026-04-26 19:02 | 51.43526 | 0.16110 | 3001 ft | 194 kts | 274° |
| 2026-04-26 19:02 | 51.43577 | 0.14667 | 2876 ft | 197 kts | 275° |
| 2026-04-26 19:03 | 51.43676 | 0.11730 | 2532 ft | 198 kts | 274° |
| 2026-04-26 19:03 | 51.43747 | 0.09526 | 2287 ft | 199 kts | 274° |
| 2026-04-26 19:03 | 51.43818 | 0.07331 | 2134 ft | 195 kts | 274° |
| 2026-04-26 19:03 | 51.43885 | 0.05199 | 2066 ft | 190 kts | 273° |
| 2026-04-26 19:04 | 51.43949 | 0.03116 | 2034 ft | 185 kts | 273° |
| 2026-04-26 19:04 | 51.44010 | 0.01079 | 2016 ft | 181 kts | 273° |
| 2026-04-26 19:04 | 51.44071 | -0.00923 | 2019 ft | 179 kts | 273° |
| 2026-04-26 19:04 | 51.44133 | -0.02927 | 2016 ft | 180 kts | 273° |
| 2026-04-26 19:05 | 51.44261 | -0.06940 | 2006 ft | 181 kts | 272° |
| 2026-04-26 19:05 | 51.44416 | -0.08918 | 1992 ft | 179 kts | 292° |
| 2026-04-26 19:05 | 51.45253 | -0.10291 | 1997 ft | 172 kts | 334° |
| 2026-04-26 19:06 | 51.46323 | -0.11066 | 1997 ft | 165 kts | 342° |
| 2026-04-26 19:06 | 51.47384 | -0.11605 | 1999 ft | 156 kts | 348° |
| 2026-04-26 19:06 | 51.48412 | -0.12008 | 1995 ft | 148 kts | 354° |
| 2026-04-26 19:06 | 51.49318 | -0.11571 | 1991 ft | 135 kts | 44° |
| 2026-04-26 19:07 | 51.49976 | -0.10560 | 1995 ft | 126 kts | 49° |
| 2026-04-26 19:07 | 51.50556 | -0.09570 | 1998 ft | 118 kts | 51° |
| 2026-04-26 19:07 | 51.51100 | -0.08610 | 1995 ft | 113 kts | 53° |
| 2026-04-26 19:07 | 51.51218 | -0.07469 | 1991 ft | 107 kts | 106° |
| 2026-04-26 19:08 | 51.51045 | -0.06292 | 1997 ft | 114 kts | 101° |
| 2026-04-26 19:08 | 51.50905 | -0.04992 | 2000 ft | 114 kts | 100° |
| 2026-04-26 19:08 | 51.50826 | -0.04205 | 1955 ft | 106 kts | 98° |
| 2026-04-26 19:08 | 51.50755 | -0.02696 | 1630 ft | 99 kts | 93° |
| 2026-04-26 19:09 | 51.50739 | -0.01611 | 1393 ft | 95 kts | 92° |
| 2026-04-26 19:09 | 51.50724 | -0.00550 | 1160 ft | 94 kts | 94° |
| 2026-04-26 19:09 | 51.50697 | 0.00494 | 929 ft | 95 kts | 94° |
| 2026-04-26 19:09 | 51.50658 | 0.01569 | 689 ft | 98 kts | 95° |
| 2026-04-26 19:10 | 51.50613 | 0.02674 | 450 ft | 99 kts | 94° |
| 2026-04-26 19:10 | 51.50594 | 0.03418 | 274 ft | 99 kts | 91° |
| 2026-04-26 19:10 | 51.50562 | 0.04534 | 68 ft | 102 kts | 93° |
| 2026-04-26 19:10 | 51.50527 | 0.05585 | 22 ft | 64 kts | 95° |
| 2026-04-26 19:11 | 51.50508 | 0.05973 | 22 ft | 12 kts | 93° |
| 2026-04-26 19:11 | 51.50478 | 0.06043 | 22 ft | 7 kts | 184° |
| 2026-04-26 19:11 | 51.50446 | 0.06007 | 22 ft | 0 kts | 229° |
| 2026-04-26 19:13 | 51.50445 | 0.06005 | 22 ft | 2 kts | 229° |
| 2026-04-26 19:13 | 51.50427 | 0.05958 | 23 ft | 7 kts | 255° |
| 2026-04-26 19:13 | 51.50428 | 0.05864 | 23 ft | 10 kts | 273° |
| 2026-04-26 19:13 | 51.50432 | 0.05737 | 25 ft | 12 kts | 272° |
| 2026-04-26 19:14 | 51.50436 | 0.05596 | 24 ft | 13 kts | 272° |
| 2026-04-26 19:14 | 51.50441 | 0.05443 | 22 ft | 14 kts | 272° |
| 2026-04-26 19:14 | 51.50446 | 0.05282 | 22 ft | 14 kts | 273° |
| 2026-04-26 19:14 | 51.50449 | 0.05174 | 22 ft | 15 kts | 272° |
| 2026-04-26 19:15 | 51.50463 | 0.04960 | 22 ft | 15 kts | 270° |
| 2026-04-26 19:15 | 51.50467 | 0.04818 | 23 ft | 12 kts | 272° |
| 2026-04-26 19:15 | 51.50471 | 0.04689 | 25 ft | 11 kts | 273° |
| 2026-04-26 19:15 | 51.50475 | 0.04561 | 22 ft | 7 kts | 272° |
| 2026-04-26 19:16 | 51.50470 | 0.04531 | 22 ft | 3 kts | 219° |
| 2026-04-26 19:16 | 51.50448 | 0.04523 | 22 ft | 1 kts | 184° |
| 2026-04-26 19:16 | 51.50442 | 0.04523 | 22 ft | 0 kts | 182° |